Time;durP1;ratioP1;P1;durP2;ratioP2;P2;SDS_P1;SDS_P2;PMS_P1;PMS_P2;Temp;Humidity;BMP_temperature;BMP_pressure;BME280_temperature;BME280_humidity;BME280_pressure;Samples;Min_cycle;Max_cycle;Signal;HPM_P1;HPM_P2
2021/09/08 00:00:10;;;;;;;15.63;14.03;;;16.90;99.90;;;16.84;89.28;98499.44;5066163;28;20648;-82
2021/09/08 00:02:41;;;;;;;18.20;13.97;;;16.80;99.90;;;16.82;90.14;98503.97;5060480;28;20622;-82
2021/09/08 00:05:12;;;;;;;16.13;14.47;;;16.80;99.90;;;16.78;88.99;98513.13;5062661;28;20649;-82
2021/09/08 00:07:40;;;;;;;15.93;13.87;;;16.80;99.90;;;16.77;89.63;98500.91;5062787;28;20658;-82
2021/09/08 00:10:10;;;;;;;15.60;13.83;;;16.70;99.90;;;16.75;88.52;98502.84;5060606;28;20633;-82
2021/09/08 00:12:42;;;;;;;19.93;13.60;;;16.70;99.90;;;16.73;88.99;98504.81;5041167;28;21210;-82
2021/09/08 00:15:12;;;;;;;14.93;13.33;;;16.70;99.90;;;16.68;89.23;98501.72;5062053;28;21025;-82
2021/09/08 00:17:41;;;;;;;18.20;14.50;;;16.70;99.90;;;16.65;89.70;98495.88;5061141;28;20629;-82
2021/09/08 00:20:12;;;;;;;17.17;15.37;;;16.60;99.90;;;16.61;89.51;98490.06;5056853;28;20667;-82
2021/09/08 00:22:40;;;;;;;17.20;14.13;;;16.60;99.90;;;16.58;88.35;98498.22;5060772;28;21218;-82
2021/09/08 00:25:11;;;;;;;16.73;14.43;;;16.60;99.90;;;16.57;88.85;98488.63;5058609;28;20778;-82
2021/09/08 00:27:41;;;;;;;15.47;13.73;;;16.60;99.90;;;16.56;90.15;98492.22;5060471;28;20666;-82
2021/09/08 00:30:13;;;;;;;16.53;14.37;;;16.60;99.90;;;16.54;89.45;98488.91;5059307;28;20622;-82
2021/09/08 00:32:44;;;;;;;16.93;15.07;;;16.50;99.90;;;16.53;91.01;98492.47;5059983;28;20630;-82
2021/09/08 00:35:13;;;;;;;19.47;14.87;;;16.50;99.90;;;16.49;90.47;98486.78;5060340;28;20628;-82
2021/09/08 00:37:42;;;;;;;17.03;14.70;;;16.50;99.90;;;16.46;89.20;98482.59;5063440;28;20993;-82
2021/09/08 00:40:13;;;;;;;16.43;14.50;;;16.50;99.90;;;16.43;90.91;98474.97;5061933;28;20621;-82
2021/09/08 00:42:44;;;;;;;16.70;14.50;;;16.40;99.90;;;16.42;90.46;98472.47;5077720;28;20663;-82
2021/09/08 00:45:14;;;;;;;17.30;15.20;;;16.40;99.90;;;16.39;90.87;98470.94;5065952;28;20643;-82
2021/09/08 00:47:43;;;;;;;16.57;14.77;;;16.40;99.90;;;16.39;91.15;98475.34;5061544;28;20670;-82
2021/09/08 00:50:12;;;;;;;19.00;15.17;;;16.40;99.90;;;16.37;91.15;98472.84;5065138;28;21261;-83
2021/09/08 00:52:43;;;;;;;15.50;13.77;;;16.40;99.90;;;16.36;91.00;98478.28;5065339;28;20717;-82
2021/09/08 00:55:13;;;;;;;16.67;14.50;;;16.40;99.90;;;16.31;89.42;98465.50;5059043;28;20694;-82
2021/09/08 00:57:45;;;;;;;16.07;14.37;;;16.30;99.90;;;16.30;90.46;98466.47;5049142;28;21052;-83
2021/09/08 01:00:16;;;;;;;18.23;14.50;;;16.30;99.90;;;16.27;90.43;98468.53;5067069;28;20664;-83
2021/09/08 01:02:46;;;;;;;17.83;14.73;;;16.30;99.90;;;16.25;90.01;98471.28;5066720;28;20618;-83
2021/09/08 01:05:16;;;;;;;18.10;15.40;;;16.20;99.90;;;16.23;90.62;98467.13;5080209;28;20663;-83
2021/09/08 01:07:47;;;;;;;18.00;14.83;;;16.20;99.90;;;16.16;89.52;98460.66;5067901;28;20657;-82
2021/09/08 01:10:17;;;;;;;16.17;14.47;;;16.20;99.90;;;16.16;89.54;98463.28;5061740;28;21202;-82
2021/09/08 01:12:47;;;;;;;17.73;15.50;;;16.20;99.90;;;16.16;91.68;98465.91;5066905;28;20634;-83
2021/09/08 01:15:16;;;;;;;17.87;15.07;;;16.20;99.90;;;16.14;90.66;98462.59;5068792;28;20735;-82
2021/09/08 01:17:46;;;;;;;19.33;15.43;;;16.20;99.90;;;16.14;91.18;98473.13;5066586;28;20625;-82
2021/09/08 01:20:16;;;;;;;18.07;15.03;;;16.10;99.90;;;16.12;89.74;98467.16;5065272;28;20714;-82
2021/09/08 01:22:49;;;;;;;18.67;15.00;;;16.10;99.90;;;16.08;89.39;98471.00;5066714;28;20629;-82
2021/09/08 01:25:20;;;;;;;17.63;14.73;;;16.10;99.90;;;16.05;90.63;98463.38;5069273;28;20636;-82
2021/09/08 01:27:49;;;;;;;17.10;14.77;;;16.00;99.90;;;16.02;89.05;98465.44;5063126;28;20639;-82
2021/09/08 01:30:19;;;;;;;17.27;14.83;;;16.00;99.90;;;15.98;89.57;98458.75;5081299;28;20630;-82
2021/09/08 01:32:49;;;;;;;18.90;14.63;;;16.00;99.90;;;15.97;89.60;98465.81;5066268;28;20623;-82
2021/09/08 01:35:19;;;;;;;17.70;14.63;;;16.00;99.90;;;15.94;90.32;98462.63;5063260;28;20647;-82
2021/09/08 01:37:50;;;;;;;18.20;14.80;;;16.00;99.90;;;15.94;90.70;98465.25;5064812;28;20668;-82
2021/09/08 01:40:19;;;;;;;17.60;15.17;;;15.90;99.90;;;15.93;91.05;98458.31;5066887;28;20976;-82
2021/09/08 01:42:48;;;;;;;16.70;15.00;;;16.00;99.90;;;15.94;89.55;98450.28;5062071;28;20690;-83
2021/09/08 01:45:18;;;;;;;18.73;15.83;;;15.90;99.90;;;15.94;89.63;98450.28;5065941;28;20963;-82
2021/09/08 01:47:47;;;;;;;18.20;15.07;;;15.90;99.90;;;15.91;90.58;98454.97;5067118;28;20659;-82
2021/09/08 01:50:16;;;;;;;17.33;15.53;;;15.90;99.90;;;15.89;90.38;98449.84;5065945;28;20642;-83
2021/09/08 01:52:44;;;;;;;18.10;15.33;;;15.90;99.90;;;15.90;90.93;98448.03;5065492;28;20666;-83
2021/09/08 01:55:15;;;;;;;17.17;15.00;;;15.90;99.90;;;15.88;91.57;98444.72;5064223;28;20636;-83
2021/09/08 01:57:44;;;;;;;16.47;14.23;;;15.90;99.90;;;15.87;90.86;98443.03;5067675;28;20625;-83
2021/09/08 02:00:15;;;;;;;17.47;15.30;;;15.90;99.90;;;15.84;91.83;98440.66;5066149;28;20647;-83
2021/09/08 02:02:44;;;;;;;18.17;15.00;;;15.80;99.90;;;15.80;90.04;98436.59;5065775;28;20692;-82
2021/09/08 02:05:15;;;;;;;16.63;14.80;;;15.80;99.90;;;15.75;91.56;98442.25;5063042;28;20631;-83
2021/09/08 02:07:44;;;;;;;19.17;15.10;;;15.80;99.90;;;15.73;91.01;98436.28;5063512;28;21035;-83
2021/09/08 02:10:14;;;;;;;16.70;14.90;;;15.70;99.90;;;15.71;91.26;98432.09;5067977;28;20638;-83
2021/09/08 02:12:44;;;;;;;18.97;15.30;;;15.70;99.90;;;15.68;91.72;98438.47;5046230;28;20692;-82
2021/09/08 02:15:13;;;;;;;18.33;15.03;;;15.70;99.90;;;15.67;89.86;98431.53;5065681;28;20721;-83
2021/09/08 02:17:42;;;;;;;15.10;13.50;;;15.70;99.90;;;15.61;90.95;98428.59;5063817;28;20631;-82
2021/09/08 02:20:12;;;;;;;17.40;14.83;;;15.60;99.90;;;15.59;89.89;98433.13;5065799;28;20723;-82
2021/09/08 02:22:40;;;;;;;17.20;15.27;;;15.60;99.90;;;15.60;91.70;98421.66;5061749;28;21241;-83
2021/09/08 02:25:10;;;;;;;17.07;14.83;;;15.60;99.90;;;15.58;90.14;98426.22;5062997;28;20741;-82
2021/09/08 02:27:40;;;;;;;17.70;15.50;;;15.60;99.90;;;15.57;89.75;98425.41;5061761;28;21292;-83
2021/09/08 02:30:11;;;;;;;18.33;15.20;;;15.60;99.90;;;15.55;89.98;98424.66;5061650;28;21298;-83
2021/09/08 02:32:40;;;;;;;17.17;15.37;;;15.60;99.90;;;15.51;89.92;98425.03;5065205;28;21211;-82
2021/09/08 02:35:09;;;;;;;19.73;14.60;;;15.50;99.90;;;15.50;89.73;98420.78;5065470;28;20642;-82
2021/09/08 02:37:39;;;;;;;20.30;16.60;;;15.50;99.90;;;15.47;89.60;98426.28;5064358;28;20629;-82
2021/09/08 02:40:09;;;;;;;17.23;14.30;;;15.50;99.90;;;15.48;91.34;98430.56;5062903;28;20638;-82
2021/09/08 02:42:37;;;;;;;18.20;14.97;;;15.50;99.90;;;15.44;91.06;98423.91;5068483;28;20665;-82
2021/09/08 02:45:09;;;;;;;17.10;15.30;;;15.50;99.90;;;15.44;91.52;98423.03;5060141;28;21772;-82
2021/09/08 02:47:39;;;;;;;17.47;15.57;;;15.50;99.90;;;15.42;90.95;98419.72;5062643;28;20700;-83
2021/09/08 02:50:09;;;;;;;21.00;14.63;;;15.40;99.90;;;15.38;89.68;98413.03;5064790;28;20642;-83
2021/09/08 02:52:38;;;;;;;18.73;15.10;;;15.40;99.90;;;15.36;89.32;98417.59;5072214;28;20639;-83
2021/09/08 02:55:08;;;;;;;17.23;15.17;;;15.40;99.90;;;15.30;89.98;98413.66;5066809;28;20629;-83
2021/09/08 02:57:37;;;;;;;18.13;15.17;;;15.40;99.90;;;15.28;91.15;98414.78;5064405;28;21425;-83
2021/09/08 03:00:09;;;;;;;18.87;15.50;;;15.30;99.90;;;15.26;89.70;98416.66;5065690;28;21144;-83
2021/09/08 03:02:38;;;;;;;16.40;14.67;;;15.30;99.90;;;15.25;90.10;98422.91;5063555;28;20693;-83
2021/09/08 03:05:08;;;;;;;18.17;16.10;;;15.30;99.90;;;15.21;91.14;98411.78;5064824;28;20621;-82
2021/09/08 03:07:37;;;;;;;17.70;15.40;;;15.30;99.90;;;15.17;91.50;98415.63;5059195;28;20653;-83
2021/09/08 03:10:07;;;;;;;18.50;15.40;;;15.20;99.90;;;15.16;90.21;98413.09;5067249;28;20638;-83
2021/09/08 03:12:35;;;;;;;21.33;15.20;;;15.20;99.90;;;15.13;89.97;98408.94;5064833;28;20621;-82
2021/09/08 03:15:07;;;;;;;16.87;14.30;;;15.10;99.90;;;15.09;91.01;98404.91;5067406;28;21004;-82
2021/09/08 03:17:37;;;;;;;19.03;15.60;;;15.10;99.90;;;15.08;91.37;98397.13;5049087;28;20738;-82
2021/09/08 03:20:07;;;;;;;20.30;14.63;;;15.10;99.90;;;15.07;91.21;98403.34;5063294;28;20630;-82
2021/09/08 03:22:36;;;;;;;19.70;16.13;;;15.10;99.90;;;15.04;91.19;98400.97;5061231;28;20694;-83
2021/09/08 03:25:06;;;;;;;18.17;16.27;;;15.10;99.90;;;15.00;91.10;98396.91;5061955;28;20648;-83
2021/09/08 03:27:35;;;;;;;18.83;15.90;;;15.10;99.90;;;14.99;90.62;98395.25;5041747;28;21217;-82
2021/09/08 03:30:07;;;;;;;18.17;14.87;;;15.00;99.90;;;14.97;90.66;98402.41;5063263;28;20698;-82
2021/09/08 03:32:36;;;;;;;16.93;14.30;;;15.00;99.90;;;14.95;90.26;98393.00;5062921;28;20663;-83
2021/09/08 03:35:06;;;;;;;19.27;15.90;;;15.00;99.90;;;14.93;89.94;98395.75;5067188;28;21125;-83
2021/09/08 03:37:35;;;;;;;20.37;15.93;;;15.00;99.90;;;14.89;90.18;98390.88;5067358;28;20661;-83
2021/09/08 03:40:05;;;;;;;16.47;14.43;;;14.90;99.90;;;14.86;91.08;98391.94;5061660;28;20662;-82
2021/09/08 03:42:35;;;;;;;19.17;16.20;;;14.90;99.90;;;14.84;90.18;98396.50;5062737;28;20631;-83
2021/09/08 03:45:05;;;;;;;20.03;16.30;;;14.90;99.90;;;14.81;91.00;98394.09;5056868;28;20643;-83
2021/09/08 03:47:35;;;;;;;18.03;15.37;;;14.90;99.90;;;14.79;90.52;98389.94;5047202;28;20676;-83
2021/09/08 03:50:05;;;;;;;19.97;16.30;;;14.80;99.90;;;14.79;90.11;98387.31;5060943;28;20705;-83
2021/09/08 03:52:34;;;;;;;16.87;15.00;;;14.80;99.90;;;14.79;90.15;98388.16;5058860;28;20621;-83
2021/09/08 03:55:03;;;;;;;20.20;16.43;;;14.80;99.90;;;14.79;90.45;98389.94;5061985;28;20643;-83
2021/09/08 03:57:32;;;;;;;18.50;15.73;;;14.80;99.90;;;14.77;90.80;98386.59;5059808;28;20728;-83
2021/09/08 04:00:01;;;;;;;20.27;15.70;;;14.80;99.90;;;14.76;90.13;98380.53;5065725;28;23390;-83
2021/09/08 04:02:32;;;;;;;19.20;16.03;;;14.80;99.90;;;14.71;91.03;98377.41;5057711;28;20650;-83
2021/09/08 04:05:04;;;;;;;19.27;16.23;;;14.70;99.90;;;14.68;90.28;98375.03;5059503;28;20698;-83
2021/09/08 04:07:33;;;;;;;19.27;16.07;;;14.70;99.90;;;14.66;91.32;98379.56;5064205;28;20654;-82
2021/09/08 04:10:05;;;;;;;18.60;15.90;;;14.70;99.90;;;14.61;91.52;98368.63;5057810;28;20648;-83
2021/09/08 04:12:34;;;;;;;17.40;15.27;;;14.70;99.90;;;14.61;91.02;98376.50;5059294;28;20631;-83
2021/09/08 04:15:03;;;;;;;25.00;16.63;;;14.70;99.90;;;14.60;90.74;98377.44;5063327;28;20973;-83
2021/09/08 04:17:32;;;;;;;23.97;18.60;;;14.70;99.90;;;14.59;90.99;98380.19;5049643;28;20652;-83
2021/09/08 04:20:00;;;;;;;19.57;15.50;;;14.70;99.90;;;14.57;91.61;98376.00;5060256;28;20635;-82
2021/09/08 04:22:31;;;;;;;21.33;16.87;;;14.60;99.90;;;14.55;91.82;98367.44;5063899;28;20750;-83
2021/09/08 04:25:00;;;;;;;19.03;16.37;;;14.60;99.90;;;14.54;91.72;98371.84;5062497;28;20647;-83
2021/09/08 04:27:30;;;;;;;20.80;17.50;;;14.60;99.90;;;14.53;91.58;98380.69;5067458;28;21193;-83
2021/09/08 04:29:59;;;;;;;17.47;15.60;;;14.60;99.90;;;14.49;91.13;98373.16;5063167;28;20658;-83
2021/09/08 04:32:27;;;;;;;18.70;15.87;;;14.50;99.90;;;14.48;91.63;98372.34;5064366;28;20640;-83
2021/09/08 04:34:56;;;;;;;21.73;17.80;;;14.50;99.90;;;14.47;91.33;98369.84;5065702;28;20645;-83
2021/09/08 04:37:24;;;;;;;21.10;16.87;;;14.50;99.90;;;14.46;90.92;98368.16;5060867;28;20645;-83
2021/09/08 04:39:54;;;;;;;19.10;15.90;;;14.50;99.90;;;14.44;91.55;98370.09;5046544;28;20993;-83
2021/09/08 04:42:23;;;;;;;19.87;15.87;;;14.50;99.90;;;14.42;90.65;98374.63;5065628;28;20646;-83
2021/09/08 04:44:52;;;;;;;23.07;16.93;;;14.50;99.90;;;14.39;91.52;98367.00;5066623;28;21432;-83
2021/09/08 04:47:21;;;;;;;20.07;17.00;;;14.50;99.90;;;14.38;91.08;98370.56;5064560;28;21208;-83
2021/09/08 04:49:49;;;;;;;21.13;16.70;;;14.40;99.90;;;14.37;91.53;98372.38;5069456;28;21087;-83
2021/09/08 04:52:18;;;;;;;24.10;20.87;;;14.40;99.90;;;14.35;90.97;98366.38;5060935;28;20627;-83
2021/09/08 04:54:47;;;;;;;22.07;19.03;;;14.40;99.90;;;14.33;91.29;98370.09;5060116;28;20627;-83
2021/09/08 04:57:17;;;;;;;20.47;18.03;;;14.40;99.90;;;14.32;90.92;98371.88;5069036;28;20617;-83
2021/09/08 04:59:45;;;;;;;23.37;18.57;;;14.40;99.90;;;14.33;91.32;98372.72;5045461;28;20630;-83
2021/09/08 05:02:14;;;;;;;19.80;17.23;;;14.40;99.90;;;14.36;90.99;98369.84;5062592;28;20947;-83
2021/09/08 05:04:43;;;;;;;27.73;17.80;;;14.40;99.90;;;14.40;91.46;98376.50;5066880;28;20650;-82
2021/09/08 05:07:11;;;;;;;20.27;17.20;;;14.40;99.90;;;14.41;91.83;98371.16;5059913;28;20697;-83
2021/09/08 05:09:40;;;;;;;19.70;17.60;;;14.50;99.90;;;14.49;92.17;98371.38;5068298;28;21106;-83
2021/09/08 05:12:10;;;;;;;22.63;17.63;;;14.50;99.90;;;14.62;91.33;98366.81;5059514;28;20645;-83
2021/09/08 05:14:40;;;;;;;20.00;17.50;;;14.60;99.90;;;14.77;90.56;98370.84;5063223;28;20642;-83
2021/09/08 05:17:08;;;;;;;19.50;17.40;;;14.80;99.90;;;14.88;90.83;98366.38;5059877;28;20653;-83
2021/09/08 05:19:37;;;;;;;22.00;18.13;;;14.80;99.90;;;14.98;89.70;98377.81;5066775;28;20622;-83
2021/09/08 05:22:05;;;;;;;22.20;17.83;;;15.00;99.90;;;15.07;89.41;98368.38;5060507;28;20730;-83
2021/09/08 05:24:34;;;;;;;22.63;17.83;;;15.00;99.90;;;15.17;89.84;98378.03;5062196;28;21069;-83
2021/09/08 05:27:03;;;;;;;21.43;18.03;;;15.10;99.90;;;15.27;89.84;98369.22;5064471;28;20630;-83
2021/09/08 05:29:31;;;;;;;21.87;18.33;;;15.20;99.90;;;15.38;88.77;98370.97;5061413;28;20686;-83
2021/09/08 05:32:02;;;;;;;21.50;18.57;;;15.30;99.90;;;15.52;88.20;98370.69;5063399;28;21055;-83
2021/09/08 05:34:30;;;;;;;20.37;17.73;;;15.40;99.90;;;15.64;89.23;98373.13;5062383;28;20692;-83
2021/09/08 05:36:59;;;;;;;19.50;17.40;;;15.60;99.90;;;15.78;88.20;98372.78;5056882;28;20641;-83
2021/09/08 05:39:28;;;;;;;19.93;17.83;;;15.70;99.90;;;15.92;88.94;98372.44;5060203;28;20659;-83
2021/09/08 05:41:56;;;;;;;21.30;19.00;;;15.80;99.90;;;16.06;88.78;98378.19;5058130;28;20624;-83
2021/09/08 05:44:25;;;;;;;20.73;18.00;;;15.90;99.90;;;16.21;86.00;98369.81;5058447;28;21221;-83
2021/09/08 05:46:58;;;;;;;22.97;18.17;;;16.10;99.90;;;16.38;86.52;98376.28;5066791;28;20635;-83
2021/09/08 05:49:28;;;;;;;21.83;17.63;;;16.20;99.90;;;16.52;87.17;98369.69;5070047;28;20662;-82
2021/09/08 05:51:56;;;;;;;20.83;17.17;;;16.30;99.90;;;16.71;85.16;98368.91;5058370;28;20652;-83
2021/09/08 05:54:25;;;;;;;20.00;17.70;;;16.50;99.90;;;16.86;84.49;98372.81;5067360;28;20645;-84
2021/09/08 05:56:54;;;;;;;21.33;17.00;;;16.70;99.90;;;16.98;85.33;98381.28;5053666;28;20667;-84
2021/09/08 05:59:22;;;;;;;20.70;16.40;;;16.80;99.60;;;17.15;85.00;98377.13;5060997;28;20994;-82
2021/09/08 06:01:51;;;;;;;20.33;17.73;;;17.00;99.70;;;17.34;84.61;98372.72;5061046;28;20623;-82
2021/09/08 06:04:20;;;;;;;18.73;16.70;;;17.10;99.50;;;17.55;83.23;98370.78;5064486;28;20969;-82
2021/09/08 06:06:50;;;;;;;21.27;18.17;;;17.30;99.30;;;17.78;83.74;98380.03;5062891;28;20670;-82
2021/09/08 06:09:19;;;;;;;21.17;16.33;;;17.50;99.20;;;17.96;83.08;98379.16;5067313;28;20705;-82
2021/09/08 06:11:47;;;;;;;20.57;18.37;;;17.70;98.70;;;18.16;82.05;98379.00;5066778;28;20723;-82
2021/09/08 06:14:16;;;;;;;21.10;17.40;;;17.90;98.40;;;18.36;81.93;98377.09;5059703;28;20650;-82
2021/09/08 06:16:45;;;;;;;20.23;17.40;;;18.10;98.20;;;18.46;81.72;98373.44;5065538;28;20717;-82
2021/09/08 06:19:13;;;;;;;19.90;17.80;;;18.20;97.80;;;18.54;80.86;98376.22;5067021;28;20633;-82
2021/09/08 06:21:42;;;;;;;20.37;17.23;;;18.30;97.20;;;18.66;80.86;98373.22;5060774;28;20668;-82
2021/09/08 06:24:13;;;;;;;18.50;16.60;;;18.40;97.10;;;18.81;80.53;98377.03;5071179;28;20720;-82
2021/09/08 06:26:42;;;;;;;20.67;18.27;;;18.60;97.00;;;18.97;80.25;98379.81;5070396;28;20656;-82
2021/09/08 06:29:11;;;;;;;18.20;16.10;;;18.70;96.60;;;19.15;79.04;98372.78;5066682;28;20625;-82
2021/09/08 06:31:39;;;;;;;20.20;17.87;;;18.90;96.30;;;19.42;79.95;98376.16;5064034;28;20673;-82
2021/09/08 06:34:09;;;;;;;18.83;16.63;;;19.10;96.70;;;19.65;78.61;98374.72;5071842;28;20640;-82
2021/09/08 06:36:37;;;;;;;19.10;16.67;;;19.40;95.90;;;19.88;78.17;98366.16;5045981;28;20639;-81
2021/09/08 06:39:06;;;;;;;19.97;16.60;;;19.60;95.60;;;20.05;77.83;98371.38;5050897;28;20640;-81
2021/09/08 06:41:37;;;;;;;18.13;15.37;;;19.80;95.40;;;20.22;76.85;98373.16;5063792;28;20673;-81
2021/09/08 06:44:06;;;;;;;17.80;16.00;;;19.90;94.80;;;20.36;76.20;98378.69;5060292;28;20684;-81
2021/09/08 06:46:34;;;;;;;18.60;15.30;;;20.10;94.40;;;20.46;76.26;98366.16;5060930;28;21729;-81
2021/09/08 06:49:03;;;;;;;19.07;16.20;;;20.20;94.00;;;20.68;76.29;98367.44;5062658;28;20737;-81
2021/09/08 06:51:32;;;;;;;19.53;15.37;;;20.40;94.70;;;20.92;74.99;98371.00;5048905;28;20789;-81
2021/09/08 06:54:00;;;;;;;17.07;15.37;;;20.60;94.10;;;21.08;75.11;98358.63;5066351;28;20630;-81
2021/09/08 06:56:29;;;;;;;16.40;14.70;;;20.70;93.40;;;21.28;75.38;98365.28;5055803;28;20640;-81
2021/09/08 06:58:59;;;;;;;16.77;15.07;;;20.90;93.60;;;21.52;73.11;98371.47;5050769;28;20627;-82
2021/09/08 07:01:28;;;;;;;19.23;13.67;;;21.20;92.60;;;21.72;73.12;98370.13;5066839;28;20645;-82
2021/09/08 07:03:57;;;;;;;18.33;14.97;;;21.30;92.60;;;22.02;75.65;98358.81;5058951;28;20624;-82
2021/09/08 07:06:26;;;;;;;14.53;13.13;;;21.60;94.10;;;22.22;74.55;98357.47;5062220;28;20655;-82
2021/09/08 07:08:54;;;;;;;16.60;14.53;;;21.90;93.10;;;22.48;71.86;98354.41;5062521;28;21084;-82
2021/09/08 07:11:24;;;;;;;14.17;12.70;;;22.10;92.00;;;22.67;70.02;98347.84;5067568;28;20688;-82
2021/09/08 07:13:52;;;;;;;13.53;12.23;;;22.30;90.50;;;22.85;70.10;98349.22;5066060;28;20636;-82
2021/09/08 07:16:22;;;;;;;14.20;12.80;;;22.50;90.00;;;23.08;71.94;98345.66;5060286;28;20738;-82
2021/09/08 07:18:51;;;;;;;12.83;11.53;;;22.70;90.90;;;23.32;68.30;98341.00;5064504;28;20635;-82
2021/09/08 07:21:20;;;;;;;13.00;11.60;;;23.00;89.20;;;23.51;67.45;98335.16;5063062;28;20648;-82
2021/09/08 07:23:48;;;;;;;13.00;11.70;;;23.10;85.70;;;23.67;66.93;98335.06;5048881;28;20670;-82
2021/09/08 07:26:17;;;;;;;13.90;12.20;;;23.40;84.60;;;23.73;65.30;98334.34;5062268;28;20650;-82
2021/09/08 07:28:46;;;;;;;11.67;10.47;;;23.40;82.20;;;23.86;65.57;98337.22;5062395;28;20632;-82
2021/09/08 07:31:14;;;;;;;11.80;10.70;;;23.60;81.10;;;24.01;64.01;98343.41;5063016;28;20646;-82
2021/09/08 07:33:44;;;;;;;11.80;10.60;;;23.80;80.00;;;24.05;64.10;98347.38;5064089;28;20660;-82
2021/09/08 07:36:13;;;;;;;13.27;11.03;;;23.80;78.60;;;24.14;64.62;98340.97;5063658;28;20678;-82
2021/09/08 07:38:43;;;;;;;14.67;10.33;;;23.90;79.60;;;24.40;64.95;98340.34;5064799;28;21130;-82
2021/09/08 07:41:12;;;;;;;11.93;10.73;;;24.10;80.70;;;24.61;64.82;98343.09;5065972;28;20619;-82
2021/09/08 07:43:41;;;;;;;11.40;10.03;;;24.30;80.50;;;24.82;63.54;98345.81;5060848;28;20732;-82
2021/09/08 07:46:11;;;;;;;12.17;10.87;;;24.50;77.10;;;25.00;63.58;98346.28;5064797;28;21023;-82
2021/09/08 07:48:40;;;;;;;11.63;10.47;;;24.70;77.60;;;25.19;63.69;98344.66;5068677;28;21222;-82
2021/09/08 07:51:12;;;;;;;12.80;10.53;;;24.90;77.50;;;25.26;62.68;98340.22;5064586;28;20661;-82
2021/09/08 07:53:41;;;;;;;11.73;10.53;;;25.00;76.30;;;25.41;63.77;98337.47;5063797;28;20661;-82
2021/09/08 07:56:09;;;;;;;11.53;10.30;;;25.10;76.80;;;25.57;62.39;98337.22;5065075;28;20637;-82
2021/09/08 07:58:38;;;;;;;11.20;10.00;;;25.30;75.40;;;25.61;61.83;98325.97;5064111;28;21189;-82
2021/09/08 08:01:06;;;;;;;11.30;10.13;;;25.30;74.10;;;25.64;61.64;98334.44;5058394;28;21260;-83
2021/09/08 08:03:35;;;;;;;12.03;10.70;;;25.50;74.60;;;25.60;61.50;98330.50;5079757;28;20644;-82
2021/09/08 08:06:04;;;;;;;12.17;10.97;;;25.40;73.20;;;25.67;61.55;98331.38;5057797;28;20761;-82
2021/09/08 08:08:35;;;;;;;11.93;10.73;;;25.50;73.10;;;25.66;61.99;98331.56;5059609;28;20700;-82
2021/09/08 08:11:08;;;;;;;12.80;11.70;;;25.40;73.40;;;25.66;61.87;98332.44;5060703;28;20667;-83
2021/09/08 08:13:36;;;;;;;11.23;10.20;;;25.50;72.80;;;25.65;62.60;98328.09;5066526;28;20665;-83
2021/09/08 08:16:07;;;;;;;12.73;11.43;;;25.50;73.00;;;25.65;60.68;98319.25;5051378;28;20738;-83
2021/09/08 08:18:36;;;;;;;11.67;10.57;;;25.50;71.30;;;25.55;60.93;98316.03;5064722;28;21088;-83
2021/09/08 08:21:05;;;;;;;11.87;10.20;;;25.40;70.50;;;25.58;61.20;98316.47;5065151;28;20643;-83
2021/09/08 08:23:35;;;;;;;11.70;10.27;;;25.40;71.00;;;25.48;60.66;98317.81;5063491;28;20635;-83
2021/09/08 08:26:04;;;;;;;11.47;10.27;;;25.30;69.20;;;25.45;61.96;98312.84;5057172;28;20658;-83
2021/09/08 08:28:34;;;;;;;12.23;11.03;;;25.20;71.50;;;25.52;61.16;98312.94;5055352;28;20689;-82
2021/09/08 08:31:05;;;;;;;11.87;10.57;;;25.30;71.00;;;25.53;60.64;98304.72;5056432;28;20652;-83
2021/09/08 08:33:34;;;;;;;11.63;10.50;;;25.20;69.60;;;25.64;61.14;98310.38;5056499;28;20639;-83
2021/09/08 08:36:02;;;;;;;11.73;10.53;;;25.40;70.00;;;25.78;61.52;98305.97;5060164;28;20638;-83
2021/09/08 08:38:31;;;;;;;11.50;10.40;;;25.50;71.00;;;25.91;60.79;98314.13;5060957;28;20738;-83
2021/09/08 08:41:01;;;;;;;11.63;10.27;;;25.60;70.00;;;25.98;61.34;98323.00;5058719;28;20635;-83
2021/09/08 08:43:30;;;;;;;12.83;11.00;;;25.70;70.20;;;26.10;61.95;98314.25;5061912;28;20624;-83
2021/09/08 08:46:01;;;;;;;11.63;10.50;;;25.80;71.60;;;26.21;60.79;98301.16;5064483;28;20635;-83
2021/09/08 08:48:30;;;;;;;11.40;10.20;;;25.90;69.80;;;26.24;60.85;98311.44;5064810;28;20734;-83
2021/09/08 08:50:59;;;;;;;11.10;10.00;;;26.00;70.00;;;26.45;61.98;98314.09;5060883;28;21233;-83
2021/09/08 08:53:28;;;;;;;11.57;10.37;;;26.10;72.60;;;26.38;59.43;98307.84;5059364;28;20641;-83
2021/09/08 08:55:57;;;;;;;10.63;9.60;;;26.10;67.70;;;26.26;60.59;98300.56;5068262;28;20673;-83
2021/09/08 08:58:27;;;;;;;11.17;10.07;;;26.00;67.70;;;26.22;61.30;98302.81;5066394;28;20624;-83
2021/09/08 09:01:20;;;;;;;11.23;10.13;;;26.00;69.20;;;26.15;60.69;98293.91;5068063;28;20623;-83
2021/09/08 09:04:04;;;;;;;10.80;9.70;;;25.90;68.20;;;26.18;61.46;98298.84;5066045;28;20625;-83
2021/09/08 09:06:35;;;;;;;11.33;10.23;;;26.00;69.20;;;26.26;60.98;98293.34;5065952;28;20675;-83
2021/09/08 09:09:07;;;;;;;12.60;10.33;;;26.00;69.60;;;26.43;61.84;98285.84;5069114;28;20627;-83
2021/09/08 09:11:38;;;;;;;11.43;10.40;;;26.10;71.30;;;26.50;61.50;98292.88;5068598;28;20759;-83
2021/09/08 09:14:11;;;;;;;11.47;10.27;;;26.20;69.90;;;26.47;59.69;98289.78;5062552;28;20627;-83
2021/09/08 09:16:41;;;;;;;11.87;10.40;;;26.20;67.60;;;26.48;60.21;98283.44;5057687;28;20628;-83
2021/09/08 09:19:13;;;;;;;14.70;10.40;;;26.20;68.00;;;26.68;61.29;98282.47;5063530;28;20682;-83
2021/09/08 09:21:43;;;;;;;11.50;10.47;;;26.30;70.00;;;26.76;61.48;98276.94;5066769;28;20715;-83
2021/09/08 09:24:11;;;;;;;12.20;10.13;;;26.40;70.10;;;26.63;61.03;98280.41;5068885;28;20627;-83
2021/09/08 09:26:42;;;;;;;11.30;10.20;;;26.40;68.70;;;26.49;60.03;98277.03;5070396;28;20750;-83
2021/09/08 09:29:16;;;;;;;10.90;9.97;;;26.20;66.70;;;26.56;61.36;98270.69;5066021;28;20626;-83
2021/09/08 09:31:53;;;;;;;11.50;10.40;;;26.30;69.10;;;26.68;61.27;98272.56;5060845;28;20676;-83
2021/09/08 09:34:24;;;;;;;11.13;10.13;;;26.40;70.20;;;26.78;59.87;98274.91;5068579;28;20714;-83
2021/09/08 09:36:54;;;;;;;10.20;9.20;;;26.50;68.40;;;26.77;61.83;98270.56;5075699;28;20626;-83
2021/09/08 09:39:24;;;;;;;11.00;9.90;;;26.50;69.20;;;26.81;60.12;98261.94;5086105;28;20692;-83
2021/09/08 09:41:52;;;;;;;11.67;10.07;;;26.50;67.20;;;26.70;59.99;98256.31;5064680;28;20731;-83
2021/09/08 09:44:22;;;;;;;11.30;10.10;;;26.40;66.80;;;26.62;60.38;98257.31;5064609;28;20727;-83
2021/09/08 09:46:56;;;;;;;10.90;9.80;;;26.40;66.90;;;26.64;58.56;98265.16;5062228;28;21277;-84
2021/09/08 09:49:26;;;;;;;9.83;8.83;;;26.30;64.80;;;26.62;57.66;98251.16;5058315;28;20631;-84
2021/09/08 09:51:56;;;;;;;10.17;9.17;;;26.30;62.30;;;26.62;58.10;98249.28;5065045;28;20655;-83
2021/09/08 09:54:26;;;;;;;10.40;9.30;;;26.30;62.70;;;26.62;58.05;98248.47;5062929;28;20628;-83
2021/09/08 09:56:55;;;;;;;10.80;9.53;;;26.30;63.10;;;26.62;58.74;98248.47;5062576;28;20628;-83
2021/09/08 09:59:25;;;;;;;10.63;9.53;;;26.30;64.30;;;26.70;58.88;98243.78;5065698;28;21018;-83
2021/09/08 10:01:54;;;;;;;10.30;9.20;;;26.40;64.80;;;26.78;59.75;98240.91;5067545;28;21213;-83
2021/09/08 10:04:23;;;;;;;10.70;9.60;;;26.50;65.60;;;26.85;58.43;98227.53;5062584;28;20681;-82
2021/09/08 10:06:55;;;;;;;10.50;9.50;;;26.50;63.70;;;26.87;59.34;98230.84;5066719;28;20667;-82
2021/09/08 10:09:25;;;;;;;13.03;9.93;;;26.60;64.80;;;26.78;57.53;98221.34;5068648;28;20661;-82
2021/09/08 10:11:57;;;;;;;11.60;10.43;;;26.50;62.60;;;26.70;59.73;98208.13;5059405;28;20752;-82
2021/09/08 10:14:30;;;;;;;10.47;9.37;;;26.40;64.70;;;26.79;58.55;98206.91;5065756;28;20739;-83
2021/09/08 10:17:03;;;;;;;10.00;9.00;;;26.50;64.60;;;26.91;58.59;98206.13;5063072;28;20671;-83